createdAt,value
2022-09-14T00:00:25.318Z,4.00
2022-09-14T00:03:22.389Z,4.80
2022-09-14T00:06:19.606Z,4.00
2022-09-14T00:09:21.545Z,3.40
2022-09-14T00:12:18.753Z,3.40
2022-09-14T00:15:16.514Z,2.00
2022-09-14T00:18:13.553Z,2.80
2022-09-14T00:21:11.203Z,4.00
2022-09-14T00:24:08.494Z,3.20
2022-09-14T00:27:05.251Z,4.80
2022-09-14T00:30:02.280Z,3.00
2022-09-14T00:32:59.313Z,3.80
2022-09-14T00:35:56.492Z,5.00
2022-09-14T00:38:56.698Z,8.60
2022-09-14T00:41:54.458Z,4.00
2022-09-14T00:44:51.182Z,4.00
2022-09-14T00:47:50.000Z,3.60
2022-09-14T00:50:47.637Z,5.00
2022-09-14T00:53:44.815Z,4.60
2022-09-14T00:56:42.336Z,6.20
2022-09-14T00:59:40.705Z,4.20
2022-09-14T01:02:39.446Z,5.00
2022-09-14T01:05:48.034Z,7.80
2022-09-14T01:08:57.238Z,6.80
2022-09-14T01:12:03.088Z,5.80
2022-09-14T01:15:08.127Z,4.60
2022-09-14T01:18:28.515Z,5.00
2022-09-14T01:21:28.540Z,2.60
2022-09-14T01:24:47.812Z,5.00
2022-09-14T01:27:45.235Z,3.80
2022-09-14T01:30:42.105Z,4.00
2022-09-14T01:33:47.062Z,2.80
2022-09-14T01:36:46.274Z,6.40
2022-09-14T01:39:45.930Z,2.80
2022-09-14T01:42:43.391Z,3.60
2022-09-14T01:45:42.350Z,4.40
2022-09-14T01:48:54.658Z,2.00
2022-09-14T01:51:56.328Z,4.00
2022-09-14T01:54:57.265Z,4.80
2022-09-14T01:58:18.643Z,3.40
2022-09-14T02:01:19.234Z,3.20
2022-09-14T02:04:19.533Z,3.40
2022-09-14T02:07:16.523Z,3.60
2022-09-14T02:10:13.704Z,5.40
2022-09-14T02:13:10.920Z,4.20
2022-09-14T02:16:08.771Z,7.00
2022-09-14T02:19:06.423Z,7.00
2022-09-14T02:22:03.701Z,4.20
2022-09-14T02:25:00.404Z,4.20
2022-09-14T02:27:57.127Z,4.00
2022-09-14T02:31:13.050Z,7.40
2022-09-14T02:34:25.284Z,4.00
2022-09-14T02:37:31.369Z,4.40
2022-09-14T02:40:34.176Z,2.00
2022-09-14T02:44:05.012Z,5.60
2022-09-14T02:47:20.534Z,3.00
2022-09-14T02:50:54.946Z,5.40
2022-09-14T02:53:54.425Z,5.20
2022-09-14T02:56:51.528Z,4.00
2022-09-14T02:59:48.547Z,3.00
2022-09-14T03:02:45.766Z,7.00
2022-09-14T03:05:42.700Z,4.20
2022-09-14T03:08:39.545Z,4.20
2022-09-14T03:11:36.848Z,4.80
2022-09-14T03:14:34.006Z,5.00
2022-09-14T03:17:31.248Z,7.60
2022-09-14T03:20:29.645Z,3.80
2022-09-14T03:23:26.431Z,4.00
2022-09-14T03:26:24.245Z,5.20
2022-09-14T03:29:21.317Z,6.20
2022-09-14T03:32:18.172Z,3.80
2022-09-14T03:35:15.980Z,5.00
2022-09-14T03:38:13.450Z,8.00
2022-09-14T03:41:10.746Z,4.00
2022-09-14T03:44:07.747Z,7.00
2022-09-14T03:47:04.626Z,5.80
2022-09-14T03:50:01.721Z,4.80
2022-09-14T03:52:58.445Z,7.00
2022-09-14T03:55:55.374Z,4.80
2022-09-14T03:58:52.214Z,6.60
2022-09-14T04:01:49.959Z,6.80
2022-09-14T04:04:48.337Z,7.00
2022-09-14T04:07:45.583Z,7.80
2022-09-14T04:10:42.972Z,5.80
2022-09-14T04:13:40.815Z,4.40
2022-09-14T04:16:39.115Z,7.40
2022-09-14T04:19:39.765Z,7.60
2022-09-14T04:22:36.546Z,3.60
2022-09-14T04:25:33.580Z,5.00
2022-09-14T04:28:30.669Z,4.80
2022-09-14T04:31:27.544Z,3.00
2022-09-14T04:34:24.506Z,3.80
2022-09-14T04:37:21.741Z,6.00
2022-09-14T04:40:18.965Z,4.00
2022-09-14T04:43:16.658Z,4.40
2022-09-14T04:46:15.251Z,5.20
2022-09-14T04:49:13.376Z,5.40
2022-09-14T04:52:10.468Z,5.80
2022-09-14T04:55:08.161Z,3.20
2022-09-14T04:58:05.487Z,6.60
2022-09-14T05:01:08.762Z,6.60
2022-09-14T05:04:05.706Z,8.40
2022-09-14T05:07:02.344Z,5.60
2022-09-14T05:09:59.482Z,7.00
2022-09-14T05:12:56.299Z,5.20
2022-09-14T05:15:54.160Z,7.00
2022-09-14T05:18:51.882Z,7.80
2022-09-14T05:21:49.964Z,7.40
2022-09-14T05:24:47.380Z,6.80
2022-09-14T05:27:44.966Z,6.80
2022-09-14T05:30:42.551Z,5.40
2022-09-14T05:33:39.567Z,7.80
2022-09-14T05:36:37.626Z,3.40
2022-09-14T05:39:34.758Z,6.80
2022-09-14T05:42:31.892Z,8.60
2022-09-14T05:45:28.822Z,7.60
2022-09-14T05:48:25.880Z,9.40
2022-09-14T05:51:23.990Z,7.40
2022-09-14T05:54:21.753Z,8.20
2022-09-14T05:57:18.614Z,6.20
2022-09-14T06:00:16.230Z,8.60
2022-09-14T06:03:13.407Z,9.40
2022-09-14T06:06:12.510Z,8.60
2022-09-14T06:09:09.769Z,8.40
2022-09-14T06:12:06.640Z,7.00
2022-09-14T06:15:04.048Z,7.80
2022-09-14T06:18:01.938Z,9.40
2022-09-14T06:20:59.979Z,9.00
2022-09-14T06:23:56.938Z,6.40
2022-09-14T06:26:54.839Z,7.20
2022-09-14T06:29:53.899Z,13.00
2022-09-14T06:32:50.644Z,9.00
2022-09-14T06:36:12.355Z,8.00
2022-09-14T06:39:09.873Z,8.80
2022-09-14T06:42:07.431Z,8.00
2022-09-14T06:45:09.023Z,7.00
2022-09-14T06:48:06.742Z,5.40
2022-09-14T06:51:14.953Z,8.00
2022-09-14T06:54:12.535Z,9.00
2022-09-14T06:57:09.651Z,9.60
2022-09-14T07:00:07.739Z,7.60
2022-09-14T07:03:04.537Z,8.40
2022-09-14T07:06:09.029Z,8.60
2022-09-14T07:09:06.587Z,8.60
2022-09-14T07:12:04.108Z,13.20
2022-09-14T07:15:01.668Z,13.80
2022-09-14T07:17:59.029Z,11.20
2022-09-14T07:20:56.991Z,6.80
2022-09-14T07:23:55.766Z,11.20
2022-09-14T07:26:52.838Z,8.40
2022-09-14T07:29:49.941Z,4.00
2022-09-14T07:32:46.934Z,7.40
2022-09-14T07:35:44.488Z,7.60
2022-09-14T07:38:52.089Z,7.80
2022-09-14T07:41:50.875Z,11.20
2022-09-14T07:44:47.477Z,8.60
2022-09-14T07:47:44.761Z,9.00
2022-09-14T07:50:42.070Z,12.80
2022-09-14T07:53:42.660Z,9.60
2022-09-14T07:56:40.031Z,10.40
2022-09-14T07:59:38.388Z,7.20
2022-09-14T08:02:36.116Z,7.80
2022-09-14T08:05:33.793Z,9.40
2022-09-14T08:08:31.763Z,10.60
2022-09-14T08:11:30.375Z,9.00
2022-09-14T08:14:27.963Z,9.20
2022-09-14T08:17:24.491Z,8.40
2022-09-14T08:20:22.305Z,8.80
2022-09-14T08:23:19.924Z,8.00
2022-09-14T08:26:21.543Z,6.40
2022-09-14T08:29:19.260Z,7.00
2022-09-14T08:32:16.652Z,5.00
2022-09-14T08:35:13.717Z,4.00
2022-09-14T08:38:10.625Z,8.00
2022-09-14T08:41:30.879Z,5.80
2022-09-14T08:44:44.864Z,8.20
2022-09-14T08:47:42.046Z,5.40
2022-09-14T08:50:39.073Z,4.60
2022-09-14T08:53:39.322Z,5.60
2022-09-14T08:56:40.241Z,4.00
2022-09-14T08:59:53.436Z,5.40
2022-09-14T09:03:08.426Z,5.00
2022-09-14T09:06:18.707Z,5.20
2022-09-14T09:09:46.456Z,4.00
2022-09-14T09:12:55.365Z,5.00
2022-09-14T09:15:59.150Z,4.00
2022-09-14T09:19:00.327Z,3.00
2022-09-14T09:21:57.515Z,5.00
2022-09-14T09:24:55.165Z,4.60
2022-09-14T09:28:01.042Z,5.00
2022-09-14T09:31:05.340Z,8.00
2022-09-14T09:34:26.490Z,7.40
2022-09-14T09:37:23.943Z,4.60
2022-09-14T09:40:34.718Z,3.80
2022-09-14T09:43:49.056Z,4.00
2022-09-14T09:46:49.477Z,6.00
2022-09-14T09:49:46.906Z,5.00
2022-09-14T09:52:50.896Z,4.80
2022-09-14T09:55:48.960Z,4.60
2022-09-14T09:58:51.697Z,4.00
2022-09-14T10:01:48.681Z,2.60
2022-09-14T10:05:00.514Z,2.00
2022-09-14T10:08:09.361Z,2.40
2022-09-14T10:11:34.199Z,4.20
2022-09-14T10:14:36.663Z,0.00
2022-09-14T10:17:33.916Z,3.80
2022-09-14T10:20:30.652Z,2.00
2022-09-14T10:23:29.295Z,1.60
2022-09-14T10:26:27.181Z,3.00
2022-09-14T10:29:38.343Z,3.40
2022-09-14T10:32:35.972Z,4.80
2022-09-14T10:35:43.999Z,3.80
2022-09-14T10:38:46.110Z,2.60
2022-09-14T10:42:05.981Z,6.40
2022-09-14T10:45:20.936Z,3.40
2022-09-14T10:48:27.167Z,2.40
2022-09-14T10:51:46.343Z,4.00
2022-09-14T10:54:58.431Z,9.00
2022-09-14T10:58:07.826Z,6.60
2022-09-14T11:01:39.732Z,4.00
2022-09-14T11:04:49.159Z,5.80
2022-09-14T11:08:24.680Z,6.40
2022-09-14T11:11:42.935Z,6.20
2022-09-14T11:15:19.136Z,4.60
2022-09-14T11:18:41.747Z,5.20
2022-09-14T11:21:42.087Z,5.80
2022-09-14T11:24:46.276Z,4.00
2022-09-14T11:27:55.065Z,4.20
2022-09-14T11:30:55.904Z,3.40
2022-09-14T11:33:58.654Z,3.40
2022-09-14T11:36:58.988Z,2.20
2022-09-14T11:40:03.313Z,2.80
2022-09-14T11:43:06.312Z,0.00
2022-09-14T11:46:11.972Z,3.00
2022-09-14T11:49:18.791Z,2.40
2022-09-14T11:52:21.000Z,1.00
2022-09-14T11:55:18.231Z,1.80
2022-09-14T11:58:25.973Z,1.00
2022-09-14T12:01:41.533Z,1.80
2022-09-14T12:04:39.236Z,0.20
2022-09-14T12:07:39.715Z,2.00
2022-09-14T12:11:04.911Z,1.60
2022-09-14T12:14:23.395Z,2.80
2022-09-14T12:17:39.534Z,1.00
2022-09-14T12:20:37.679Z,1.60
2022-09-14T12:23:37.711Z,1.60
2022-09-14T12:26:35.123Z,1.60
2022-09-14T12:29:33.439Z,1.00
2022-09-14T12:32:40.892Z,1.40
2022-09-14T12:35:37.903Z,1.60
2022-09-14T12:38:38.019Z,2.00
2022-09-14T12:41:35.054Z,1.00
2022-09-14T12:44:41.507Z,2.00
2022-09-14T12:47:39.225Z,1.60
2022-09-14T12:50:35.827Z,0.80
2022-09-14T12:53:33.119Z,1.20
2022-09-14T12:56:42.288Z,0.40
2022-09-14T12:59:51.302Z,1.40
2022-09-14T13:03:30.066Z,1.80
2022-09-14T13:06:35.040Z,1.00
2022-09-14T13:09:32.114Z,1.60
2022-09-14T13:12:33.795Z,1.00
2022-09-14T13:15:39.509Z,2.40
2022-09-14T13:18:37.590Z,1.80
2022-09-14T13:21:34.984Z,1.80
2022-09-14T13:24:35.211Z,0.60
2022-09-14T13:27:36.138Z,1.00
2022-09-14T13:30:33.835Z,6.60
2022-09-14T13:33:31.083Z,3.40
2022-09-14T13:36:29.744Z,2.20
2022-09-14T13:39:35.234Z,1.60
2022-09-14T13:42:31.924Z,1.40
2022-09-14T13:45:28.819Z,1.60
2022-09-14T13:48:26.114Z,2.00
2022-09-14T13:51:26.235Z,2.00
2022-09-14T13:54:29.731Z,1.00
2022-09-14T13:57:26.823Z,1.40
2022-09-14T14:00:24.395Z,2.00
2022-09-14T14:03:29.020Z,2.60
2022-09-14T14:06:28.308Z,1.00
2022-09-14T14:09:26.064Z,3.80
2022-09-14T14:12:27.078Z,1.40
2022-09-14T14:15:24.008Z,1.80
2022-09-14T14:18:32.420Z,2.20
2022-09-14T14:21:32.084Z,1.80
2022-09-14T14:24:29.420Z,2.00
2022-09-14T14:27:38.365Z,1.60
2022-09-14T14:30:37.950Z,1.60
2022-09-14T14:33:36.464Z,2.40
2022-09-14T14:36:34.875Z,3.80
2022-09-14T14:39:32.617Z,1.60
2022-09-14T14:42:30.134Z,3.00
2022-09-14T14:45:27.235Z,2.00
2022-09-14T14:48:24.028Z,1.60
2022-09-14T14:51:21.818Z,1.40
2022-09-14T14:54:19.532Z,2.00
2022-09-14T14:57:17.432Z,1.60
2022-09-14T15:00:17.743Z,4.00
2022-09-14T15:03:19.160Z,2.00
2022-09-14T15:06:20.006Z,3.00
2022-09-14T15:09:25.221Z,2.80
2022-09-14T15:12:22.307Z,3.60
2022-09-14T15:15:21.791Z,2.40
2022-09-14T15:18:18.998Z,3.60
2022-09-14T15:21:16.068Z,1.80
2022-09-14T15:24:13.004Z,3.00
2022-09-14T15:27:10.152Z,1.20
2022-09-14T15:30:07.664Z,1.40
2022-09-14T15:33:05.153Z,2.00
2022-09-14T15:36:03.462Z,1.40
2022-09-14T15:39:00.815Z,1.40
2022-09-14T15:41:58.649Z,3.00
2022-09-14T15:44:56.117Z,2.00
2022-09-14T15:47:53.214Z,3.00
2022-09-14T15:50:50.191Z,2.00
2022-09-14T15:53:47.911Z,1.20
2022-09-14T15:56:52.383Z,2.00
2022-09-14T15:59:49.266Z,0.80
2022-09-14T16:02:49.495Z,1.40
2022-09-14T16:05:47.141Z,2.00
2022-09-14T16:08:43.923Z,2.40
2022-09-14T16:11:40.964Z,2.00
2022-09-14T16:14:38.365Z,1.80
2022-09-14T16:17:35.139Z,2.00
2022-09-14T16:20:32.440Z,3.40
2022-09-14T16:23:29.885Z,1.00
2022-09-14T16:26:29.522Z,1.00
2022-09-14T16:29:27.457Z,1.40
2022-09-14T16:32:23.977Z,2.00
2022-09-14T16:35:20.894Z,1.40
2022-09-14T16:38:18.316Z,2.00
2022-09-14T16:41:15.487Z,1.60
2022-09-14T16:44:19.383Z,2.00
2022-09-14T16:47:16.328Z,2.00
2022-09-14T16:50:13.478Z,3.00
2022-09-14T16:53:10.507Z,1.00
2022-09-14T16:56:09.898Z,2.80
2022-09-14T16:59:07.526Z,2.00
2022-09-14T17:02:05.324Z,1.20
2022-09-14T17:05:02.679Z,2.20
2022-09-14T17:08:00.451Z,1.00
2022-09-14T17:10:57.356Z,2.60
2022-09-14T17:13:54.398Z,0.00
2022-09-14T17:16:51.506Z,1.20
2022-09-14T17:19:48.997Z,2.00
2022-09-14T17:22:45.966Z,2.20
2022-09-14T17:25:42.906Z,2.20
2022-09-14T17:28:40.566Z,1.60
2022-09-14T17:31:40.703Z,2.00
2022-09-14T17:34:38.163Z,2.00
2022-09-14T17:37:35.051Z,1.20
2022-09-14T17:40:32.116Z,3.00
2022-09-14T17:43:28.813Z,2.40
2022-09-14T17:46:26.740Z,3.00
2022-09-14T17:49:24.229Z,1.00
2022-09-14T17:52:21.066Z,1.80
2022-09-14T17:55:17.986Z,1.20
2022-09-14T17:58:19.443Z,3.00
2022-09-14T18:01:19.564Z,2.00
2022-09-14T18:04:16.998Z,3.60
2022-09-14T18:07:14.463Z,3.20
2022-09-14T18:10:11.322Z,2.00
2022-09-14T18:13:08.609Z,2.00
2022-09-14T18:16:06.432Z,3.40
2022-09-14T18:19:03.965Z,3.60
2022-09-14T18:22:01.222Z,3.00
2022-09-14T18:24:58.088Z,1.80
2022-09-14T18:27:55.427Z,1.80
2022-09-14T18:31:06.413Z,2.60
2022-09-14T18:34:04.215Z,3.00
2022-09-14T18:37:01.273Z,2.60
2022-09-14T18:39:58.151Z,3.40
2022-09-14T18:42:55.044Z,3.20
2022-09-14T18:45:53.894Z,2.80
2022-09-14T18:48:54.853Z,3.00
2022-09-14T18:51:52.579Z,5.20
2022-09-14T18:54:50.156Z,4.20
2022-09-14T18:57:47.852Z,3.60
2022-09-14T19:00:45.988Z,3.00
2022-09-14T19:03:43.306Z,2.20
2022-09-14T19:06:41.730Z,3.00
2022-09-14T19:09:39.755Z,2.40
2022-09-14T19:12:37.070Z,3.20
2022-09-14T19:15:34.967Z,2.00
2022-09-14T19:18:32.260Z,3.20
2022-09-14T19:21:30.840Z,3.00
2022-09-14T19:24:30.905Z,4.60
2022-09-14T19:27:28.573Z,6.20
2022-09-14T19:30:26.417Z,3.00
2022-09-14T19:33:23.651Z,4.40
2022-09-14T19:36:22.214Z,4.00
2022-09-14T19:39:22.607Z,4.80
2022-09-14T19:42:23.873Z,4.40
2022-09-14T19:45:21.377Z,3.00
2022-09-14T19:48:18.735Z,3.40
2022-09-14T19:51:18.205Z,2.00
2022-09-14T19:54:15.293Z,4.40
2022-09-14T19:57:12.526Z,4.60
2022-09-14T20:00:16.287Z,3.20
2022-09-14T20:03:16.938Z,4.00
2022-09-14T20:06:23.608Z,3.80
2022-09-14T20:09:22.656Z,3.20
2022-09-14T20:12:20.369Z,4.60
2022-09-14T20:15:17.409Z,4.40
2022-09-14T20:18:14.566Z,3.20
2022-09-14T20:21:19.700Z,4.40
2022-09-14T20:24:20.076Z,7.00
2022-09-14T20:27:17.488Z,4.00
2022-09-14T20:30:14.515Z,5.20
2022-09-14T20:33:11.155Z,5.00
2022-09-14T20:36:11.071Z,6.00
2022-09-14T20:39:08.745Z,7.60
2022-09-14T20:42:06.594Z,4.20
2022-09-14T20:45:03.155Z,4.40
2022-09-14T20:48:00.293Z,4.20
2022-09-14T20:50:57.464Z,6.20
2022-09-14T20:53:56.139Z,3.80
2022-09-14T20:56:53.564Z,3.60
2022-09-14T20:59:50.638Z,3.00
2022-09-14T21:02:51.361Z,3.20
2022-09-14T21:05:48.513Z,4.00
2022-09-14T21:08:45.683Z,2.60
2022-09-14T21:11:45.842Z,2.00
2022-09-14T21:14:45.276Z,4.00
2022-09-14T21:17:42.348Z,4.00
2022-09-14T21:20:39.306Z,3.20
2022-09-14T21:23:36.430Z,5.00
2022-09-14T21:26:39.331Z,4.80
2022-09-14T21:29:39.529Z,3.00
2022-09-14T21:32:36.438Z,3.00
2022-09-14T21:35:33.805Z,3.60
2022-09-14T21:38:31.531Z,4.00
2022-09-14T21:41:30.169Z,4.00
2022-09-14T21:44:32.123Z,3.00
2022-09-14T21:47:29.475Z,4.00
2022-09-14T21:50:26.353Z,4.20
2022-09-14T21:53:23.355Z,3.00
2022-09-14T21:56:21.390Z,3.00
2022-09-14T21:59:20.266Z,4.80
2022-09-14T22:02:17.319Z,2.00
2022-09-14T22:05:14.300Z,4.00
2022-09-14T22:08:11.702Z,3.60
2022-09-14T22:11:15.112Z,4.20
2022-09-14T22:14:14.789Z,4.40
2022-09-14T22:17:12.474Z,6.00
2022-09-14T22:20:10.933Z,5.60
2022-09-14T22:23:08.575Z,4.80
2022-09-14T22:26:07.452Z,5.60
2022-09-14T22:29:04.967Z,5.80
2022-09-14T22:32:02.522Z,6.80
2022-09-14T22:34:59.637Z,7.60
2022-09-14T22:37:56.620Z,7.80
2022-09-14T22:40:57.486Z,11.60
2022-09-14T22:43:54.739Z,15.60
2022-09-14T22:46:51.463Z,16.60
2022-09-14T22:49:48.678Z,13.00
2022-09-14T22:52:45.421Z,11.60
2022-09-14T22:55:42.705Z,10.00
2022-09-14T22:58:39.360Z,9.20
2022-09-14T23:01:39.018Z,8.40
2022-09-14T23:04:36.639Z,9.20
2022-09-14T23:07:33.715Z,9.00
2022-09-14T23:10:30.656Z,9.00
2022-09-14T23:13:27.691Z,6.20
2022-09-14T23:16:26.386Z,5.00
2022-09-14T23:19:23.844Z,3.80
2022-09-14T23:22:21.297Z,5.00
2022-09-14T23:25:18.723Z,4.20
2022-09-14T23:28:15.512Z,4.60
2022-09-14T23:31:12.558Z,5.40
2022-09-14T23:34:09.744Z,4.00
2022-09-14T23:37:06.712Z,4.40
2022-09-14T23:40:03.965Z,7.20
2022-09-14T23:43:01.581Z,4.20
2022-09-14T23:45:58.795Z,2.60
2022-09-14T23:48:56.782Z,4.00
2022-09-14T23:51:54.565Z,2.80
2022-09-14T23:54:51.632Z,6.20
2022-09-14T23:57:48.740Z,3.40
